Time;durP1;ratioP1;P1;durP2;ratioP2;P2;SDS_P1;SDS_P2;PMS_P1;PMS_P2;Temp;Humidity;BMP_temperature;BMP_pressure;BME280_temperature;BME280_humidity;BME280_pressure;Samples;Min_cycle;Max_cycle;Signal;HPM_P1;HPM_P2
2022/06/21 00:02:04;;;;;;;;;;;;;;;24.56;45.10;99253.47;7313062;19;129517;-32
2022/06/21 00:04:30;;;;;;;;;;;;;;;24.92;52.36;99253.91;7314163;19;130959;-43
2022/06/21 00:06:57;;;;;;;;;;;;;;;25.07;52.10;99244.34;7312765;19;129196;-33
2022/06/21 00:09:23;;;;;;;;;;;;;;;25.25;52.57;99252.81;7312384;19;129031;-39
2022/06/21 00:11:49;;;;;;;;;;;;;;;25.29;52.06;99243.56;7312985;19;130211;-39
2022/06/21 00:14:14;;;;;;;;;;;;;;;25.30;52.77;99242.59;7312886;19;130972;-32
2022/06/21 00:16:39;;;;;;;;;;;;;;;25.22;52.55;99234.72;7311873;19;130029;-34
2022/06/21 00:19:06;;;;;;;;;;;;;;;25.33;52.81;99250.13;7313249;19;129552;-33
2022/06/21 00:21:33;;;;;;;;;;;;;;;25.32;52.63;99248.50;7312082;19;129495;-33
2022/06/21 00:23:58;;;;;;;;;;;;;;;25.33;52.47;99250.13;7313394;19;130302;-36
2022/06/21 00:26:25;;;;;;;;;;;;;;;25.33;52.66;99255.41;7312771;19;129703;-38
2022/06/21 00:28:50;;;;;;;;;;;;;;;25.23;52.88;99233.72;7313621;19;129519;-42
2022/06/21 00:31:24;;;;;;;;;;;;;;;25.33;52.51;99252.75;7312275;19;129591;-37
2022/06/21 00:33:49;;;;;;;;;;;;;;;25.34;52.23;99257.03;7311858;19;129322;-37
2022/06/21 00:36:21;;;;;;;;;;;;;;;25.30;52.14;99253.13;7312508;19;130655;-36
2022/06/21 00:38:46;;;;;;;;;;;;;;;25.31;52.79;99258.19;7314031;19;129028;-35
2022/06/21 00:41:12;;;;;;;;;;;;;;;25.28;52.13;99260.34;7312731;19;130787;-37
2022/06/21 00:43:44;;;;;;;;;;;;;;;25.30;52.27;99261.81;7312470;19;129599;-42
2022/06/21 00:46:30;;;;;;;;;;;;;;;25.29;52.13;99261.97;7312427;19;129661;-45
2022/06/21 00:48:55;;;;;;;;;;;;;;;25.29;52.06;99269.88;7312530;19;129140;-33
2022/06/21 00:51:25;;;;;;;;;;;;;;;25.22;52.34;99251.31;7311544;19;130318;-36
2022/06/21 00:53:54;;;;;;;;;;;;;;;25.19;52.49;99251.66;7311776;19;133286;-34
2022/06/21 00:56:37;;;;;;;;;;;;;;;25.29;52.01;99267.25;7311802;19;130246;-33
2022/06/21 00:59:19;;;;;;;;;;;;;;;24.48;44.75;99267.44;7311219;19;129501;-32
2022/06/21 01:01:45;;;;;;;;;;;;;;;24.85;51.57;99268.72;7311513;19;130622;-38
2022/06/21 01:04:13;;;;;;;;;;;;;;;25.05;52.35;99269.97;7310039;19;129312;-39
2022/06/21 01:06:42;;;;;;;;;;;;;;;25.12;52.18;99266.47;7310830;19;129278;-35
2022/06/21 01:09:11;;;;;;;;;;;;;;;25.11;52.00;99258.75;7313285;19;129908;-35
2022/06/21 01:11:41;;;;;;;;;;;;;;;25.20;51.67;99274.38;7310684;19;130126;-37
2022/06/21 01:14:08;;;;;;;;;;;;;;;25.23;52.41;99286.34;7311031;19;130515;-34
2022/06/21 01:16:33;;;;;;;;;;;;;;;25.23;52.42;99283.72;7308938;19;129843;-34
2022/06/21 01:19:00;;;;;;;;;;;;;;;25.23;51.90;99281.09;7312196;19;128892;-43
2022/06/21 01:21:26;;;;;;;;;;;;;;;25.21;51.88;99281.25;7312671;19;131240;-35
2022/06/21 01:23:52;;;;;;;;;;;;;;;25.22;52.45;99290.00;7312029;19;129054;-32
2022/06/21 01:26:36;;;;;;;;;;;;;;;25.23;52.09;99278.47;7310610;19;131108;-42
2022/06/21 01:29:01;;;;;;;;;;;;;;;25.21;51.77;99286.53;7311737;19;130839;-29
2022/06/21 01:31:28;;;;;;;;;;;;;;;25.19;51.69;99275.34;7310617;19;129442;-32
2022/06/21 01:33:53;;;;;;;;;;;;;;;25.19;51.84;99275.34;7311516;19;131301;-49
2022/06/21 01:36:24;;;;;;;;;;;;;;;25.19;52.05;99280.59;7308639;19;129672;-40
2022/06/21 01:38:59;;;;;;;;;;;;;;;25.18;51.84;99280.78;7311253;19;129237;-34
2022/06/21 01:41:30;;;;;;;;;;;;;;;25.19;51.75;99282.41;7310579;19;130577;-32
2022/06/21 01:43:57;;;;;;;;;;;;;;;25.20;51.74;99289.34;7311260;19;130968;-36
2022/06/21 01:46:26;;;;;;;;;;;;;;;25.18;51.92;99292.13;7311350;19;129123;-38
2022/06/21 01:48:53;;;;;;;;;;;;;;;25.18;51.96;99286.03;7310542;19;129192;-34
2022/06/21 01:51:28;;;;;;;;;;;;;;;25.18;52.02;99296.56;7309685;19;130968;-33
2022/06/21 01:53:54;;;;;;;;;;;;;;;25.09;52.33;99271.28;7310346;19;129201;-32
2022/06/21 01:56:21;;;;;;;;;;;;;;;24.72;45.73;99284.19;7310386;19;129430;-35
2022/06/21 01:58:52;;;;;;;;;;;;;;;24.37;47.07;99283.56;7310439;19;129131;-32
2022/06/21 02:01:26;;;;;;;;;;;;;;;24.73;51.65;99262.16;7310433;19;129546;-36
2022/06/21 02:03:55;;;;;;;;;;;;;;;24.99;51.25;99281.19;7315391;19;129803;-31
2022/06/21 02:06:22;;;;;;;;;;;;;;;25.07;51.33;99281.16;7317081;19;131314;-33
2022/06/21 02:09:02;;;;;;;;;;;;;;;25.02;51.63;99265.06;7317653;19;129229;-36
2022/06/21 02:11:33;;;;;;;;;;;;;;;25.11;51.69;99280.66;7318926;19;130573;-35
2022/06/21 02:16:50;;;;;;;;;;;;;;;25.02;51.23;99265.88;7317544;19;129094;-36
2022/06/21 02:19:31;;;;;;;;;;;;;;;25.11;51.29;99279.81;7316581;19;129464;-38
2022/06/21 02:21:56;;;;;;;;;;;;;;;25.10;52.00;99289.53;7317786;19;130153;-32
2022/06/21 02:24:28;;;;;;;;;;;;;;;25.10;52.06;99289.53;7315954;19;129230;-36
2022/06/21 02:26:55;;;;;;;;;;;;;;;25.09;51.53;99284.44;7315231;19;130015;-32
2022/06/21 02:29:20;;;;;;;;;;;;;;;25.10;52.01;99294.78;7316863;19;129278;-33
2022/06/21 02:31:46;;;;;;;;;;;;;;;25.10;51.71;99288.72;7315341;19;129383;-42
2022/06/21 02:34:25;;;;;;;;;;;;;;;25.09;51.89;99287.06;7315735;19;131062;-34
2022/06/21 02:36:52;;;;;;;;;;;;;;;25.10;51.97;99284.28;7313834;19;129196;-35
2022/06/21 02:39:19;;;;;;;;;;;;;;;25.09;51.79;99293.13;7315594;19;129262;-33
2022/06/21 02:41:48;;;;;;;;;;;;;;;25.09;51.41;99289.72;7315663;19;130777;-39
2022/06/21 02:44:16;;;;;;;;;;;;;;;25.08;51.12;99285.41;7316145;19;130307;-39
2022/06/21 02:46:44;;;;;;;;;;;;;;;25.08;51.03;99282.78;7315299;19;129370;-38
2022/06/21 02:49:09;;;;;;;;;;;;;;;24.98;51.37;99266.38;7315400;19;129727;-39
2022/06/21 02:51:37;;;;;;;;;;;;;;;25.07;51.76;99289.06;7316758;19;129814;-34
2022/06/21 02:54:02;;;;;;;;;;;;;;;25.07;52.06;99291.69;7315165;19;130473;-36
2022/06/21 02:56:32;;;;;;;;;;;;;;;24.61;45.08;99281.91;7315320;19;129396;-32
2022/06/21 02:58:59;;;;;;;;;;;;;;;24.33;47.88;99290.13;7316225;19;129706;-40
2022/06/21 03:01:28;;;;;;;;;;;;;;;24.73;50.84;99286.66;7311294;19;130008;-34
2022/06/21 03:03:53;;;;;;;;;;;;;;;24.89;51.44;99289.25;7316951;19;130492;-28
2022/06/21 03:06:21;;;;;;;;;;;;;;;24.97;50.81;99288.41;7312870;19;129629;-38
2022/06/21 03:09:06;;;;;;;;;;;;;;;24.99;50.80;99286.44;7315467;19;129797;-33
2022/06/21 03:11:36;;;;;;;;;;;;;;;25.00;50.85;99293.34;7315371;19;130890;-33
2022/06/21 03:14:03;;;;;;;;;;;;;;;24.93;51.02;99287.94;7313407;19;130726;-33
2022/06/21 03:16:29;;;;;;;;;;;;;;;25.01;51.27;99289.72;7314942;19;129721;-32
2022/06/21 03:18:58;;;;;;;;;;;;;;;25.01;51.13;99294.97;7315955;19;129384;-31
2022/06/21 03:21:31;;;;;;;;;;;;;;;25.00;51.41;99291.53;7315674;19;130363;-41
2022/06/21 03:23:57;;;;;;;;;;;;;;;24.98;50.98;99292.69;7316132;19;129144;-31
2022/06/21 03:26:23;;;;;;;;;;;;;;;25.01;51.37;99301.06;7316535;19;130171;-31
2022/06/21 03:28:51;;;;;;;;;;;;;;;25.00;51.03;99304.69;7314848;19;130253;-29
2022/06/21 03:31:19;;;;;;;;;;;;;;;25.01;50.92;99305.50;7316477;19;129148;-33
2022/06/21 03:33:48;;;;;;;;;;;;;;;24.92;51.03;99285.47;7314051;19;130964;-29
2022/06/21 03:36:15;;;;;;;;;;;;;;;24.99;51.27;99297.78;7313471;19;130281;-38
2022/06/21 03:38:42;;;;;;;;;;;;;;;24.88;51.58;99279.72;7314299;19;129458;-32
2022/06/21 03:43:57;;;;;;;;;;;;;;;24.98;51.53;99295.31;7314332;19;129099;-35
2022/06/21 03:46:30;;;;;;;;;;;;;;;24.89;51.35;99281.34;7314495;19;129348;-34
2022/06/21 03:49:05;;;;;;;;;;;;;;;24.97;51.05;99296.31;7313919;19;129219;-34
2022/06/21 03:51:36;;;;;;;;;;;;;;;24.98;51.24;99292.69;7313258;19;129260;-42
2022/06/21 03:54:10;;;;;;;;;;;;;;;24.94;51.10;99296.66;7312739;19;130449;-28
2022/06/21 03:56:49;;;;;;;;;;;;;;;24.97;51.46;99298.94;7312267;19;129403;-38
2022/06/21 03:59:21;;;;;;;;;;;;;;;24.96;51.55;99303.38;7308500;19;129237;-36
2022/06/21 04:02:04;;;;;;;;;;;;;;;24.23;43.91;99299.97;7310650;19;130351;-39
2022/06/21 04:04:49;;;;;;;;;;;;;;;24.38;50.79;99284.34;7312292;19;130108;-39
2022/06/21 04:07:29;;;;;;;;;;;;;;;24.72;51.02;99306.06;7307956;19;130377;-35
2022/06/21 04:09:59;;;;;;;;;;;;;;;24.77;51.03;99305.56;7309273;19;129983;-35
2022/06/21 04:12:40;;;;;;;;;;;;;;;24.83;51.04;99308.34;7308546;19;130681;-30
2022/06/21 04:15:06;;;;;;;;;;;;;;;24.88;50.10;99310.44;7308203;19;129716;-35
2022/06/21 04:17:43;;;;;;;;;;;;;;;24.76;49.90;99296.03;7303574;19;129099;-40
2022/06/21 04:20:08;;;;;;;;;;;;;;;24.85;50.85;99306.38;7308251;19;129207;-37
2022/06/21 04:22:42;;;;;;;;;;;;;;;24.88;51.05;99310.44;7305959;19;129665;-33
2022/06/21 04:25:23;;;;;;;;;;;;;;;24.88;50.51;99315.72;7307130;19;130404;-39
2022/06/21 04:27:56;;;;;;;;;;;;;;;24.88;50.81;99318.34;7308132;19;129071;-38
2022/06/21 04:30:26;;;;;;;;;;;;;;;24.89;50.95;99320.00;7314449;19;128813;-37
2022/06/21 04:32:59;;;;;;;;;;;;;;;24.88;50.96;99316.53;7305222;19;130817;-42
2022/06/21 04:35:34;;;;;;;;;;;;;;;24.84;50.51;99314.44;7307280;19;131371;-35
2022/06/21 04:38:20;;;;;;;;;;;;;;;24.84;50.50;99309.16;7306093;19;130128;-45
2022/06/21 04:40:48;;;;;;;;;;;;;;;24.84;50.74;99309.16;7304085;19;131679;-38
2022/06/21 04:43:19;;;;;;;;;;;;;;;24.85;50.38;99310.78;7305934;19;132111;-48
2022/06/21 04:46:11;;;;;;;;;;;;;;;24.82;50.91;99305.88;7307163;19;130065;-37
2022/06/21 04:48:42;;;;;;;;;;;;;;;24.82;50.53;99316.38;7304160;19;130504;-36
2022/06/21 04:51:10;;;;;;;;;;;;;;;24.80;50.48;99323.63;7304445;19;129709;-37
2022/06/21 04:53:36;;;;;;;;;;;;;;;24.81;50.26;99330.53;7303902;19;130991;-36
2022/06/21 04:56:06;;;;;;;;;;;;;;;24.72;50.21;99315.75;7305264;19;130415;-40
2022/06/21 04:58:31;;;;;;;;;;;;;;;24.77;50.18;99322.16;7303284;19;131458;-36
2022/06/21 05:00:58;;;;;;;;;;;;;;;24.79;50.94;99327.25;7306345;19;130412;-32
2022/06/21 05:03:26;;;;;;;;;;;;;;;24.78;50.44;99325.59;7302328;19;129533;-37
2022/06/21 05:05:51;;;;;;;;;;;;;;;24.80;50.19;99334.97;7303207;19;130770;-38
2022/06/21 05:08:19;;;;;;;;;;;;;;;24.76;50.61;99332.84;7307266;19;131118;-40
2022/06/21 05:10:46;;;;;;;;;;;;;;;24.73;50.23;99330.53;7306568;19;130365;-40
2022/06/21 05:13:37;;;;;;;;;;;;;;;24.71;50.58;99332.53;7305563;19;129725;-41
2022/06/21 05:16:09;;;;;;;;;;;;;;;23.98;46.00;99329.81;7296022;19;129833;-30
2022/06/21 05:18:38;;;;;;;;;;;;;;;24.43;50.67;99331.97;7305497;19;130432;-34
2022/06/21 05:21:14;;;;;;;;;;;;;;;24.58;49.99;99329.53;7310241;19;129092;-40
2022/06/21 05:23:40;;;;;;;;;;;;;;;24.55;49.79;99332.47;7307941;19;130306;-35
2022/06/21 05:26:16;;;;;;;;;;;;;;;24.55;49.69;99333.31;7310927;19;130960;-33
2022/06/21 05:28:47;;;;;;;;;;;;;;;24.59;49.66;99337.25;7288436;19;130475;-48
2022/06/21 05:31:17;;;;;;;;;;;;;;;24.60;49.88;99353.84;7294793;19;129583;-37
2022/06/21 05:33:50;;;;;;;;;;;;;;;24.61;50.39;99351.03;7307211;19;130428;-34
2022/06/21 05:36:36;;;;;;;;;;;;;;;24.62;50.03;99346.63;7307302;19;129423;-37
2022/06/21 05:39:08;;;;;;;;;;;;;;;24.65;50.41;99354.16;7309630;19;130243;-37
2022/06/21 05:41:37;;;;;;;;;;;;;;;24.62;49.66;99351.88;7304337;19;129556;-33
2022/06/21 05:44:02;;;;;;;;;;;;;;;24.59;50.35;99355.66;7305546;19;130088;-41
2022/06/21 05:46:29;;;;;;;;;;;;;;;24.60;50.05;99356.47;7304891;19;130461;-38
2022/06/21 05:48:55;;;;;;;;;;;;;;;24.60;50.16;99359.09;7309253;19;129028;-36
2022/06/21 05:51:24;;;;;;;;;;;;;;;24.61;50.65;99360.75;7309191;19;128746;-36
2022/06/21 05:53:55;;;;;;;;;;;;;;;24.58;50.64;99366.34;7308718;19;129186;-31
2022/06/21 05:56:22;;;;;;;;;;;;;;;24.56;50.19;99363.84;7308736;19;130415;-39
2022/06/21 05:58:50;;;;;;;;;;;;;;;24.54;49.82;99371.09;7310879;19;128930;-37
2022/06/21 06:01:36;;;;;;;;;;;;;;;24.54;50.41;99359.75;7310192;19;130293;-33
2022/06/21 06:04:20;;;;;;;;;;;;;;;24.44;50.29;99354.66;7301904;19;130390;-33
2022/06/21 06:06:46;;;;;;;;;;;;;;;24.51;50.14;99370.59;7304063;19;129701;-38
2022/06/21 06:09:14;;;;;;;;;;;;;;;24.53;50.72;99368.66;7307868;19;128931;-35
2022/06/21 06:12:00;;;;;;;;;;;;;;;24.41;50.73;99353.19;7307502;19;129435;-36
2022/06/21 06:14:31;;;;;;;;;;;;;;;24.53;50.59;99369.44;7306628;19;131463;-35
2022/06/21 06:16:57;;;;;;;;;;;;;;;23.80;43.59;99371.09;7307116;19;130350;-39
2022/06/21 06:19:37;;;;;;;;;;;;;;;24.12;51.14;99363.34;7306851;19;129522;-39
2022/06/21 06:22:05;;;;;;;;;;;;;;;24.38;50.19;99376.31;7309506;19;129057;-33
2022/06/21 06:24:33;;;;;;;;;;;;;;;24.42;50.13;99378.50;7307059;19;130856;-38
2022/06/21 06:27:00;;;;;;;;;;;;;;;24.35;49.86;99359.09;7306408;19;130538;-28
2022/06/21 06:29:28;;;;;;;;;;;;;;;24.38;50.74;99353.50;7308333;19;130315;-41
2022/06/21 06:31:57;;;;;;;;;;;;;;;24.46;50.81;99373.72;7303591;19;130882;-36
2022/06/21 06:34:24;;;;;;;;;;;;;;;24.48;49.96;99362.06;7308509;19;130180;-35
2022/06/21 06:36:52;;;;;;;;;;;;;;;24.45;50.51;99356.31;7306149;19;130207;-39
2022/06/21 06:39:28;;;;;;;;;;;;;;;24.42;50.14;99351.38;7307240;19;129670;-38
2022/06/21 06:42:12;;;;;;;;;;;;;;;24.45;50.65;99366.81;7308525;19;128954;-30
2022/06/21 06:44:42;;;;;;;;;;;;;;;24.45;50.22;99372.91;7304895;19;130122;-40
2022/06/21 06:47:15;;;;;;;;;;;;;;;24.39;49.81;99365.66;7302304;19;129243;-34
2022/06/21 06:49:47;;;;;;;;;;;;;;;24.30;50.46;99356.13;7310991;19;129950;-34
2022/06/21 06:52:28;;;;;;;;;;;;;;;24.37;49.67;99372.91;7315234;19;129093;-36
2022/06/21 06:55:11;;;;;;;;;;;;;;;24.40;49.60;99377.81;7312944;19;131563;-36
2022/06/21 06:57:54;;;;;;;;;;;;;;;24.35;50.10;99372.22;7311597;19;131123;-37
2022/06/21 07:00:20;;;;;;;;;;;;;;;24.40;50.39;99387.50;7314747;19;129874;-30
2022/06/21 07:02:51;;;;;;;;;;;;;;;24.41;50.37;99374.19;7314415;19;130986;-30
2022/06/21 07:05:26;;;;;;;;;;;;;;;24.39;49.91;99368.28;7314002;19;129099;-39
2022/06/21 07:07:53;;;;;;;;;;;;;;;24.33;50.44;99373.38;7313283;19;129710;-32
2022/06/21 07:10:20;;;;;;;;;;;;;;;24.28;50.33;99360.72;7313001;19;130986;-36
2022/06/21 07:12:46;;;;;;;;;;;;;;;24.35;50.27;99374.88;7310419;19;129529;-37
2022/06/21 07:15:12;;;;;;;;;;;;;;;24.35;50.51;99374.88;7307772;19;130114;-35
2022/06/21 07:17:40;;;;;;;;;;;;;;;24.34;50.59;99381.13;7304783;19;130384;-36
2022/06/21 07:20:16;;;;;;;;;;;;;;;24.34;49.96;99375.84;7311773;19;130438;-41
2022/06/21 07:22:42;;;;;;;;;;;;;;;23.76;44.16;99382.91;7310690;19;131653;-35
2022/06/21 07:25:24;;;;;;;;;;;;;;;23.90;50.03;99382.28;7309437;19;132830;-35
2022/06/21 07:27:55;;;;;;;;;;;;;;;24.10;50.84;99367.91;7310974;19;129748;-40
2022/06/21 07:30:22;;;;;;;;;;;;;;;24.15;49.92;99365.63;7312205;19;129557;-31
2022/06/21 07:33:04;;;;;;;;;;;;;;;24.25;50.02;99371.56;7314128;19;129513;-36
2022/06/21 07:35:32;;;;;;;;;;;;;;;24.31;50.40;99386.66;7311603;19;130395;-40
2022/06/21 07:38:00;;;;;;;;;;;;;;;24.31;49.74;99385.88;7312748;19;129261;-33
2022/06/21 07:40:28;;;;;;;;;;;;;;;24.30;49.88;99390.28;7311897;19;129112;-39
2022/06/21 07:43:06;;;;;;;;;;;;;;;24.34;50.24;99383.75;7309740;19;129414;-38
2022/06/21 07:45:35;;;;;;;;;;;;;;;24.33;50.24;99378.63;7308541;19;130306;-44
2022/06/21 07:48:06;;;;;;;;;;;;;;;24.33;50.63;99387.34;7309712;19;129139;-44
2022/06/21 07:50:40;;;;;;;;;;;;;;;24.31;49.93;99391.91;7309722;19;129290;-37
2022/06/21 07:53:15;;;;;;;;;;;;;;;24.35;50.37;99382.75;7311999;19;130538;-34
2022/06/21 07:55:43;;;;;;;;;;;;;;;24.32;50.21;99392.75;7313002;19;130356;-36
2022/06/21 07:58:12;;;;;;;;;;;;;;;24.30;50.31;99381.56;7313028;19;129386;-37
2022/06/21 08:06:49;;;;;;;;;;;;;;;24.30;49.60;99376.31;7313117;19;129186;-39
2022/06/21 08:09:21;;;;;;;;;;;;;;;24.31;50.65;99375.34;7313118;19;130852;-42
2022/06/21 08:11:47;;;;;;;;;;;;;;;24.31;50.01;99377.97;7309435;19;130839;-33
2022/06/21 08:14:13;;;;;;;;;;;;;;;24.21;49.70;99364.97;7311019;19;129135;-39
2022/06/21 08:16:56;;;;;;;;;;;;;;;24.31;50.07;99388.50;7311846;19;131231;-34
2022/06/21 08:19:40;;;;;;;;;;;;;;;24.32;49.56;99382.25;7313705;19;129451;-33
2022/06/21 08:22:07;;;;;;;;;;;;;;;24.31;50.43;99381.41;7313540;19;130089;-36
2022/06/21 08:24:39;;;;;;;;;;;;;;;24.29;50.30;99386.03;7313646;19;129099;-34
2022/06/21 08:27:05;;;;;;;;;;;;;;;24.28;50.48;99381.75;7312612;19;130046;-32
2022/06/21 08:29:38;;;;;;;;;;;;;;;24.01;45.19;99389.09;7313863;19;129851;-41
2022/06/21 08:32:10;;;;;;;;;;;;;;;23.76;49.75;99375.03;7312901;19;129151;-40
2022/06/21 08:34:40;;;;;;;;;;;;;;;24.10;50.22;99394.19;7311898;19;130280;-34
2022/06/21 08:37:08;;;;;;;;;;;;;;;24.18;49.83;99398.66;7309710;19;130060;-38
2022/06/21 08:39:36;;;;;;;;;;;;;;;24.25;49.61;99397.00;7310366;19;129332;-33
2022/06/21 08:42:01;;;;;;;;;;;;;;;24.27;50.30;99403.75;7312156;19;129125;-35
2022/06/21 08:44:45;;;;;;;;;;;;;;;24.28;49.62;99402.75;7309869;19;131516;-35
2022/06/21 08:47:13;;;;;;;;;;;;;;;24.28;50.22;99397.50;7310826;19;130230;-33
2022/06/21 08:49:44;;;;;;;;;;;;;;;24.29;50.02;99399.16;7311500;19;130756;-34
2022/06/21 08:52:23;;;;;;;;;;;;;;;24.28;49.95;99387.00;7311654;19;130012;-40
2022/06/21 08:54:51;;;;;;;;;;;;;;;24.30;50.25;99387.66;7311012;19;128965;-39
2022/06/21 08:57:39;;;;;;;;;;;;;;;24.29;50.31;99387.81;7309479;19;129412;-39
2022/06/21 09:00:05;;;;;;;;;;;;;;;24.29;49.36;99401.78;7311151;19;130452;-35
2022/06/21 09:02:42;;;;;;;;;;;;;;;24.28;49.45;99396.69;7312256;19;129052;-38
2022/06/21 09:05:29;;;;;;;;;;;;;;;24.29;49.82;99396.53;7311862;19;129826;-31
2022/06/21 09:08:01;;;;;;;;;;;;;;;24.30;49.54;99385.03;7308550;19;130611;-36
2022/06/21 09:10:44;;;;;;;;;;;;;;;24.28;49.61;99391.41;7312621;19;129089;-36
2022/06/21 09:13:28;;;;;;;;;;;;;;;24.25;49.83;99391.75;7307146;19;130693;-34
2022/06/21 09:15:59;;;;;;;;;;;;;;;24.25;50.22;99408.34;7310700;19;128918;-38
2022/06/21 09:18:27;;;;;;;;;;;;;;;24.27;49.84;99400.28;7311278;19;130954;-36
2022/06/21 09:20:55;;;;;;;;;;;;;;;24.30;50.40;99406.06;7312129;19;130524;-36
2022/06/21 09:23:28;;;;;;;;;;;;;;;24.28;49.35;99394.88;7302897;19;130203;-41
2022/06/21 09:26:10;;;;;;;;;;;;;;;24.30;49.88;99399.97;7299007;19;130807;-37
2022/06/21 09:28:41;;;;;;;;;;;;;;;24.26;50.17;99391.59;7299854;19;130913;-32
2022/06/21 09:31:24;;;;;;;;;;;;;;;24.29;49.75;99399.16;7298875;19;129843;-38
2022/06/21 09:33:57;;;;;;;;;;;;;;;24.31;49.28;99401.63;7303528;19;130249;-45
2022/06/21 09:36:22;;;;;;;;;;;;;;;24.34;49.38;99396.03;7310009;19;130493;-31
2022/06/21 09:39:00;;;;;;;;;;;;;;;24.28;49.21;99387.00;7310404;19;132358;-39
2022/06/21 09:41:36;;;;;;;;;;;;;;;24.25;49.38;99403.09;7311853;19;130041;-37
2022/06/21 09:44:01;;;;;;;;;;;;;;;24.28;49.75;99402.75;7304536;19;129688;-33
2022/06/21 09:46:42;;;;;;;;;;;;;;;23.71;43.46;99411.44;7311444;19;129006;-35
2022/06/21 09:49:16;;;;;;;;;;;;;;;24.01;50.29;99404.84;7309718;19;130226;-35
2022/06/21 09:51:44;;;;;;;;;;;;;;;24.10;49.85;99404.69;7311199;19;129488;-37
2022/06/21 09:54:28;;;;;;;;;;;;;;;24.18;49.84;99417.84;7309208;19;129218;-35
2022/06/21 09:57:11;;;;;;;;;;;;;;;24.20;49.75;99413.25;7309916;19;129454;-32
2022/06/21 09:59:40;;;;;;;;;;;;;;;24.17;49.22;99410.13;7310686;19;130132;-39
2022/06/21 10:02:10;;;;;;;;;;;;;;;24.18;49.93;99402.09;7311019;19;131021;-35
2022/06/21 10:04:44;;;;;;;;;;;;;;;24.23;49.91;99409.47;7307560;19;132355;-39
2022/06/21 10:07:22;;;;;;;;;;;;;;;24.23;50.06;99415.56;7307734;19;130040;-34
2022/06/21 10:09:59;;;;;;;;;;;;;;;24.23;49.99;99419.97;7309826;19;130083;-38
2022/06/21 10:12:43;;;;;;;;;;;;;;;24.19;49.16;99424.75;7307147;19;131582;-34
2022/06/21 10:15:23;;;;;;;;;;;;;;;24.21;50.52;99416.72;7308680;19;130106;-38
2022/06/21 10:17:48;;;;;;;;;;;;;;;24.09;49.59;99392.56;7306828;19;131276;-33
2022/06/21 10:20:20;;;;;;;;;;;;;;;24.17;50.38;99404.88;7308169;19;129430;-33
2022/06/21 10:22:48;;;;;;;;;;;;;;;24.18;50.17;99407.34;7307489;19;131407;-36
2022/06/21 10:25:26;;;;;;;;;;;;;;;24.21;50.11;99412.25;7313065;19;129055;-37
2022/06/21 10:27:58;;;;;;;;;;;;;;;24.21;49.83;99408.84;7312643;19;129241;-35
2022/06/21 10:30:39;;;;;;;;;;;;;;;24.25;49.79;99407.50;7315692;19;130467;-39
2022/06/21 10:33:19;;;;;;;;;;;;;;;24.22;49.24;99400.78;7315928;19;130951;-34
2022/06/21 10:35:59;;;;;;;;;;;;;;;24.19;49.73;99402.91;7315294;19;129721;-35
2022/06/21 10:38:24;;;;;;;;;;;;;;;24.15;49.38;99401.56;7317636;19;129093;-34
2022/06/21 10:40:55;;;;;;;;;;;;;;;24.21;49.59;99407.00;7317212;19;130616;-44
2022/06/21 10:43:32;;;;;;;;;;;;;;;24.19;49.33;99411.63;7311417;19;129282;-43
2022/06/21 10:46:08;;;;;;;;;;;;;;;24.20;50.19;99415.88;7314217;19;130566;-38
2022/06/21 10:48:33;;;;;;;;;;;;;;;24.22;49.94;99411.28;7316606;19;128845;-33
2022/06/21 10:50:58;;;;;;;;;;;;;;;24.13;49.81;99391.22;7316210;19;129217;-37
2022/06/21 10:53:42;;;;;;;;;;;;;;;24.20;49.82;99402.75;7314152;19;130651;-34
2022/06/21 11:01:16;;;;;;;;;;;;;;;24.21;49.07;99404.38;7314160;19;129327;-35
2022/06/21 11:02:23;;;;;;;;;;;;;;;24.19;49.17;99393.25;7314928;19;130988;-36
2022/06/21 11:05:02;;;;;;;;;;;;;;;24.14;49.56;99392.06;7311495;19;129608;-31
2022/06/21 11:07:40;;;;;;;;;;;;;;;23.79;42.61;99400.94;7315594;19;130728;-36
2022/06/21 11:10:13;;;;;;;;;;;;;;;23.91;49.64;99409.38;7316157;19;129289;-33
2022/06/21 11:12:52;;;;;;;;;;;;;;;24.05;49.87;99411.41;7315532;19;131583;-34
2022/06/21 11:15:18;;;;;;;;;;;;;;;24.08;49.58;99401.41;7312315;19;131758;-31
2022/06/21 11:17:49;;;;;;;;;;;;;;;24.11;49.29;99393.19;7311439;19;129066;-37
2022/06/21 11:20:29;;;;;;;;;;;;;;;24.10;49.44;99396.81;7314772;19;129208;-32
2022/06/21 11:22:54;;;;;;;;;;;;;;;24.02;49.50;99370.53;7314497;19;130108;-34
2022/06/21 11:25:20;;;;;;;;;;;;;;;24.09;49.51;99382.06;7314760;19;129598;-38
2022/06/21 11:27:48;;;;;;;;;;;;;;;24.00;49.41;99372.50;7311935;19;130233;-35
2022/06/21 11:30:17;;;;;;;;;;;;;;;24.13;49.27;99393.84;7305026;19;131165;-33
2022/06/21 11:32:42;;;;;;;;;;;;;;;24.16;49.24;99383.03;7309957;19;130931;-43
2022/06/21 11:35:30;;;;;;;;;;;;;;;24.12;49.25;99392.22;7312253;19;129649;-32
2022/06/21 11:37:56;;;;;;;;;;;;;;;24.17;49.76;99389.09;7312748;19;129376;-38
2022/06/21 11:40:24;;;;;;;;;;;;;;;24.15;49.77;99381.38;7313995;19;129067;-33
2022/06/21 11:42:51;;;;;;;;;;;;;;;24.12;49.94;99386.97;7314100;19;129906;-37
2022/06/21 11:45:27;;;;;;;;;;;;;;;24.13;49.38;99382.56;7315093;19;130670;-40
2022/06/21 11:48:01;;;;;;;;;;;;;;;24.13;49.21;99378.09;7311174;19;129806;-39
2022/06/21 11:50:37;;;;;;;;;;;;;;;24.03;49.26;99361.66;7314029;19;130414;-36
2022/06/21 11:53:27;;;;;;;;;;;;;;;24.13;49.74;99385.97;7315091;19;129638;-35
2022/06/21 11:55:55;;;;;;;;;;;;;;;24.14;49.88;99371.88;7315933;19;129582;-38
2022/06/21 11:58:20;;;;;;;;;;;;;;;24.16;50.03;99364.63;7313225;19;129388;-41
2022/06/21 12:00:59;;;;;;;;;;;;;;;24.18;49.76;99372.38;7314383;19;129149;-36
2022/06/21 12:03:30;;;;;;;;;;;;;;;24.16;50.23;99354.13;7313964;19;129555;-33
2022/06/21 12:05:58;;;;;;;;;;;;;;;24.15;49.50;99355.13;7312721;19;129282;-33
2022/06/21 12:08:34;;;;;;;;;;;;;;;24.18;50.10;99343.50;7313538;19;129858;-33
2022/06/21 12:11:14;;;;;;;;;;;;;;;24.13;49.90;99343.94;7316778;19;129460;-40
2022/06/21 12:13:50;;;;;;;;;;;;;;;24.18;49.63;99343.50;7314703;19;131470;-41
2022/06/21 12:16:16;;;;;;;;;;;;;;;24.17;49.82;99337.41;7313775;19;130170;-31
2022/06/21 12:18:44;;;;;;;;;;;;;;;24.16;49.33;99325.25;7314539;19;129100;-41
2022/06/21 12:21:11;;;;;;;;;;;;;;;24.16;49.48;99330.50;7314525;19;129748;-35
2022/06/21 12:23:57;;;;;;;;;;;;;;;24.15;49.73;99338.53;7314175;19;130920;-33
2022/06/21 12:26:24;;;;;;;;;;;;;;;24.14;49.37;99335.09;7313007;19;130434;-32
2022/06/21 12:28:51;;;;;;;;;;;;;;;24.13;50.02;99325.56;7313219;19;129007;-33
2022/06/21 12:31:21;;;;;;;;;;;;;;;24.16;49.31;99327.06;7313924;19;129689;-43
2022/06/21 12:33:49;;;;;;;;;;;;;;;23.96;48.95;99309.94;7314982;19;129266;-41
2022/06/21 12:36:22;;;;;;;;;;;;;;;24.09;48.86;99324.25;7313200;19;129188;-31
2022/06/21 12:38:56;;;;;;;;;;;;;;;24.14;49.73;99319.34;7313822;19;128982;-36
2022/06/21 12:41:31;;;;;;;;;;;;;;;24.15;49.78;99302.59;7315239;19;128993;-40
2022/06/21 12:44:23;;;;;;;;;;;;;;;24.16;49.92;99298.16;7312287;19;129540;-38
2022/06/21 12:46:55;;;;;;;;;;;;;;;24.09;49.33;99300.63;7311323;19;130361;-37
2022/06/21 12:49:33;;;;;;;;;;;;;;;24.20;49.50;99310.81;7313992;19;129649;-37
2022/06/21 12:52:05;;;;;;;;;;;;;;;24.19;50.29;99309.19;7314433;19;128812;-38
2022/06/21 12:54:50;;;;;;;;;;;;;;;24.18;49.79;99299.63;7313159;19;129177;-37
2022/06/21 12:57:32;;;;;;;;;;;;;;;24.23;49.47;99297.34;7311386;19;129794;-35
2022/06/21 13:00:07;;;;;;;;;;;;;;;24.23;49.96;99294.72;7313544;19;129145;-36
2022/06/21 13:02:42;;;;;;;;;;;;;;;24.24;49.70;99292.91;7313056;19;130005;-39
2022/06/21 13:05:31;;;;;;;;;;;;;;;24.19;50.13;99277.66;7310250;19;130204;-33
2022/06/21 13:07:56;;;;;;;;;;;;;;;24.26;49.69;99291.75;7309975;19;129538;-39
2022/06/21 13:10:40;;;;;;;;;;;;;;;24.29;50.22;99283.56;7315092;19;129111;-35
2022/06/21 13:13:22;;;;;;;;;;;;;;;24.17;49.82;99268.28;7311399;19;129900;-32
2022/06/21 13:16:02;;;;;;;;;;;;;;;24.22;50.66;99266.81;7313214;19;131157;-32